createdAt,value
2022-12-13T00:01:15.576Z,1.00
2022-12-13T00:03:42.324Z,1.00
2022-12-13T00:06:09.344Z,1.00
2022-12-13T00:08:36.048Z,1.00
2022-12-13T00:11:03.852Z,1.00
2022-12-13T00:13:30.444Z,1.00
2022-12-13T00:16:00.918Z,1.00
2022-12-13T00:18:27.597Z,1.00
2022-12-13T00:20:54.161Z,1.00
2022-12-13T00:23:20.765Z,1.00
2022-12-13T00:25:47.711Z,1.00
2022-12-13T00:28:14.553Z,1.00
2022-12-13T00:30:41.380Z,1.00
2022-12-13T00:33:07.946Z,1.00
2022-12-13T00:35:34.799Z,1.00
2022-12-13T00:38:01.399Z,1.00
2022-12-13T00:40:28.476Z,1.00
2022-12-13T00:42:55.077Z,1.00
2022-12-13T00:45:21.656Z,1.00
2022-12-13T00:47:48.186Z,1.00
2022-12-13T00:50:14.811Z,1.00
2022-12-13T00:52:41.454Z,1.00
2022-12-13T00:55:08.273Z,1.00
2022-12-13T00:57:35.347Z,1.00
2022-12-13T01:00:02.049Z,1.00
2022-12-13T01:02:28.592Z,1.00
2022-12-13T01:04:55.354Z,1.00
2022-12-13T01:07:21.895Z,1.00
2022-12-13T01:09:48.499Z,1.00
2022-12-13T01:12:15.273Z,1.00
2022-12-13T01:14:41.876Z,1.00
2022-12-13T01:17:08.557Z,1.00
2022-12-13T01:19:35.206Z,1.00
2022-12-13T01:22:02.744Z,1.00
2022-12-13T01:24:29.715Z,1.00
2022-12-13T01:26:57.221Z,1.00
2022-12-13T01:29:24.192Z,1.00
2022-12-13T01:31:53.162Z,1.00
2022-12-13T01:34:20.014Z,1.00
2022-12-13T01:36:46.785Z,1.00
2022-12-13T01:39:14.816Z,1.00
2022-12-13T01:41:42.351Z,1.00
2022-12-13T01:44:27.645Z,1.00
2022-12-13T01:46:54.189Z,1.00
2022-12-13T01:49:20.962Z,1.00
2022-12-13T01:51:59.915Z,1.00
2022-12-13T01:54:34.421Z,1.00
2022-12-13T01:57:01.937Z,1.00
2022-12-13T01:59:28.552Z,1.00
2022-12-13T02:02:00.755Z,1.00
2022-12-13T02:04:44.247Z,1.00
2022-12-13T02:07:22.714Z,1.00
2022-12-13T02:09:57.100Z,1.00
2022-12-13T02:12:24.895Z,1.00
2022-12-13T02:14:57.230Z,1.00
2022-12-13T02:17:31.384Z,1.00
2022-12-13T02:19:57.979Z,1.00
2022-12-13T02:22:24.631Z,1.00
2022-12-13T02:25:05.620Z,1.00
2022-12-13T02:27:35.275Z,1.00
2022-12-13T02:30:29.380Z,1.00
2022-12-13T02:33:11.475Z,1.00
2022-12-13T02:35:52.929Z,1.00
2022-12-13T02:38:25.867Z,1.00
2022-12-13T02:41:12.092Z,1.00
2022-12-13T02:43:45.623Z,1.00
2022-12-13T02:46:12.745Z,1.00
2022-12-13T02:48:39.795Z,1.00
2022-12-13T02:51:06.966Z,1.00
2022-12-13T02:53:33.818Z,1.00
2022-12-13T02:56:00.658Z,1.00
2022-12-13T02:58:29.507Z,1.00
2022-12-13T03:01:28.681Z,1.00
2022-12-13T03:03:56.132Z,1.00
2022-12-13T03:06:46.490Z,1.00
2022-12-13T03:09:33.007Z,1.00
2022-12-13T03:12:37.317Z,1.00
2022-12-13T03:15:12.014Z,1.00
2022-12-13T03:17:41.325Z,1.00
2022-12-13T03:20:12.499Z,1.00
2022-12-13T03:22:49.044Z,1.00
2022-12-13T03:25:30.544Z,1.00
2022-12-13T03:28:01.107Z,1.00
2022-12-13T03:30:28.529Z,1.00
2022-12-13T03:32:55.108Z,1.00
2022-12-13T03:35:22.730Z,1.00
2022-12-13T03:37:49.589Z,1.00
2022-12-13T03:40:16.321Z,1.00
2022-12-13T03:42:42.864Z,1.00
2022-12-13T03:45:09.513Z,1.00
2022-12-13T03:47:36.269Z,1.00
2022-12-13T03:50:07.419Z,1.00
2022-12-13T03:52:51.785Z,1.00
2022-12-13T03:55:18.770Z,1.00
2022-12-13T03:57:45.319Z,1.00
2022-12-13T04:00:12.278Z,1.00
2022-12-13T04:02:38.924Z,1.00
2022-12-13T04:05:05.908Z,1.00
2022-12-13T04:07:34.351Z,1.00
2022-12-13T04:10:01.506Z,1.00
2022-12-13T04:12:48.596Z,1.00
2022-12-13T04:15:15.655Z,1.00
2022-12-13T04:17:42.496Z,1.00
2022-12-13T04:20:09.351Z,1.00
2022-12-13T04:22:35.893Z,1.00
2022-12-13T04:25:02.827Z,1.00
2022-12-13T04:27:29.377Z,1.00
2022-12-13T04:29:56.029Z,1.00
2022-12-13T04:32:27.245Z,1.00
2022-12-13T04:35:01.332Z,1.00
2022-12-13T04:37:39.237Z,1.00
2022-12-13T04:40:10.315Z,1.00
2022-12-13T04:42:36.990Z,1.00
2022-12-13T04:45:03.706Z,1.00
2022-12-13T04:47:30.259Z,1.00
2022-12-13T04:49:56.912Z,1.00
2022-12-13T04:52:23.548Z,1.00
2022-12-13T04:54:55.720Z,1.00
2022-12-13T04:57:22.842Z,1.00
2022-12-13T04:59:49.434Z,1.00
2022-12-13T05:02:23.208Z,1.00
2022-12-13T05:04:53.621Z,1.00
2022-12-13T05:07:20.870Z,1.00
2022-12-13T05:09:47.410Z,1.00
2022-12-13T05:12:22.284Z,1.00
2022-12-13T05:14:50.606Z,1.00
2022-12-13T05:17:17.168Z,1.00
2022-12-13T05:19:43.750Z,1.00
2022-12-13T05:22:19.805Z,1.00
2022-12-13T05:24:47.427Z,1.00
2022-12-13T05:27:23.789Z,1.00
2022-12-13T05:30:02.384Z,1.00
2022-12-13T05:32:33.679Z,1.00
2022-12-13T05:35:09.501Z,1.00
2022-12-13T05:37:36.088Z,1.00
2022-12-13T05:40:02.690Z,1.00
2022-12-13T05:45:11.205Z,1.00
2022-12-13T05:47:37.806Z,1.00
2022-12-13T05:50:04.663Z,1.00
2022-12-13T05:52:31.435Z,1.00
2022-12-13T05:55:12.774Z,1.00
2022-12-13T05:57:39.377Z,1.00
2022-12-13T06:00:06.484Z,1.00
2022-12-13T06:02:53.231Z,1.00
2022-12-13T06:05:20.957Z,1.00
2022-12-13T06:07:50.939Z,1.00
2022-12-13T06:10:21.900Z,1.00
2022-12-13T06:12:48.779Z,99.90
2022-12-13T06:15:22.640Z,99.90
2022-12-13T06:17:49.477Z,99.90
2022-12-13T06:20:23.970Z,99.90
2022-12-13T06:22:52.018Z,99.90
2022-12-13T06:25:30.880Z,99.90
2022-12-13T06:28:00.737Z,99.90
2022-12-13T06:30:28.956Z,1.00
2022-12-13T06:32:57.245Z,1.00
2022-12-13T06:35:27.427Z,1.00
2022-12-13T06:38:01.593Z,1.00
2022-12-13T06:40:29.412Z,1.00
2022-12-13T06:42:56.019Z,1.00
2022-12-13T06:45:22.567Z,1.00
2022-12-13T06:47:49.216Z,1.00
2022-12-13T06:50:16.013Z,1.00
2022-12-13T06:52:42.799Z,1.00
2022-12-13T06:55:10.044Z,1.00
2022-12-13T06:57:38.565Z,1.00
2022-12-13T07:00:07.747Z,1.00
2022-12-13T07:02:48.027Z,99.90
2022-12-13T07:05:14.751Z,99.90
2022-12-13T07:07:41.384Z,99.90
2022-12-13T07:10:22.798Z,99.90
2022-12-13T07:12:49.864Z,99.90
2022-12-13T07:15:16.756Z,99.90
2022-12-13T07:17:43.386Z,99.90
2022-12-13T07:20:10.339Z,99.90
2022-12-13T07:22:44.729Z,99.90
2022-12-13T07:25:28.368Z,99.90
2022-12-13T07:28:01.470Z,99.90
2022-12-13T07:30:41.942Z,99.90
2022-12-13T07:33:30.873Z,99.90
2022-12-13T07:36:04.703Z,99.90
2022-12-13T07:38:31.455Z,99.90
2022-12-13T07:40:58.160Z,99.90
2022-12-13T07:43:25.044Z,99.90
2022-12-13T07:45:52.117Z,99.90
2022-12-13T07:48:20.030Z,99.90
2022-12-13T07:50:46.672Z,99.90
2022-12-13T07:53:22.032Z,99.90
2022-12-13T07:55:49.084Z,99.90
2022-12-13T07:58:15.877Z,99.90
2022-12-13T08:00:45.769Z,99.90
2022-12-13T08:03:24.305Z,99.90
2022-12-13T08:05:59.195Z,99.90
2022-12-13T08:08:30.769Z,99.90
2022-12-13T08:11:11.206Z,99.90
2022-12-13T08:13:38.623Z,99.90
2022-12-13T08:16:27.322Z,99.90
2022-12-13T08:18:53.725Z,99.90
2022-12-13T08:21:53.454Z,99.90
2022-12-13T08:24:16.742Z,99.90
2022-12-13T08:26:43.314Z,99.90
2022-12-13T08:29:09.869Z,99.90
2022-12-13T08:31:36.687Z,68.50
2022-12-13T08:34:03.255Z,81.10
2022-12-13T08:36:30.008Z,46.80
2022-12-13T08:38:56.867Z,54.40
2022-12-13T08:41:23.475Z,35.10
2022-12-13T08:43:50.041Z,15.30
2022-12-13T08:46:16.637Z,1.00
2022-12-13T08:48:44.334Z,1.00
2022-12-13T08:51:12.819Z,1.00
2022-12-13T08:53:40.799Z,1.00
2022-12-13T08:56:10.781Z,1.00
2022-12-13T08:58:37.924Z,1.00
2022-12-13T09:01:13.534Z,1.00
2022-12-13T09:03:40.109Z,1.00
2022-12-13T09:06:10.486Z,1.00
2022-12-13T09:08:37.937Z,1.00
2022-12-13T09:11:10.571Z,1.00
2022-12-13T09:13:43.267Z,1.00
2022-12-13T09:16:23.132Z,1.00
2022-12-13T09:18:54.938Z,1.00
2022-12-13T09:21:31.344Z,1.00
2022-12-13T09:24:01.509Z,1.00
2022-12-13T09:26:28.823Z,1.00
2022-12-13T09:28:55.422Z,1.00
2022-12-13T09:31:22.071Z,1.00
2022-12-13T09:33:48.722Z,1.00
2022-12-13T09:36:16.081Z,1.00
2022-12-13T09:38:42.631Z,1.00
2022-12-13T09:41:28.628Z,1.00
2022-12-13T09:44:32.503Z,93.30
2022-12-13T09:47:13.501Z,1.00
2022-12-13T09:49:52.808Z,99.90
2022-12-13T09:52:21.279Z,99.90
2022-12-13T09:54:49.435Z,1.00
2022-12-13T09:57:32.443Z,1.00
2022-12-13T10:00:11.505Z,1.00
2022-12-13T10:02:42.674Z,1.00
2022-12-13T10:05:21.832Z,1.00
2022-12-13T10:07:49.952Z,1.00
2022-12-13T10:10:16.682Z,1.00
2022-12-13T10:12:43.407Z,1.00
2022-12-13T10:15:10.849Z,1.00
2022-12-13T10:17:38.627Z,1.00
2022-12-13T10:20:05.876Z,1.00
2022-12-13T10:22:32.520Z,1.00
2022-12-13T10:25:05.838Z,1.00
2022-12-13T10:27:36.852Z,1.00
2022-12-13T10:30:03.510Z,1.00
2022-12-13T10:32:30.360Z,1.00
2022-12-13T10:35:22.413Z,1.00
2022-12-13T10:37:49.410Z,1.00
2022-12-13T10:40:32.874Z,1.00
2022-12-13T10:43:07.511Z,99.90
2022-12-13T10:45:34.315Z,99.90
2022-12-13T10:48:04.210Z,99.90
2022-12-13T10:50:31.531Z,1.00
2022-12-13T10:52:58.781Z,1.00
2022-12-13T10:55:25.429Z,1.00
2022-12-13T10:57:59.598Z,99.90
2022-12-13T11:00:30.412Z,99.90
2022-12-13T11:02:56.998Z,99.90
2022-12-13T11:05:26.671Z,1.00
2022-12-13T11:07:55.213Z,1.00
2022-12-13T11:10:28.626Z,1.00
2022-12-13T11:13:00.489Z,99.90
2022-12-13T11:15:29.186Z,99.90
2022-12-13T11:17:56.295Z,99.90
2022-12-13T11:20:30.983Z,99.90
2022-12-13T11:23:01.646Z,99.90
2022-12-13T11:25:41.344Z,99.90
2022-12-13T11:28:26.764Z,99.90
2022-12-13T11:31:03.667Z,99.90
2022-12-13T11:33:49.550Z,99.90
2022-12-13T11:36:35.051Z,99.90
2022-12-13T11:39:20.492Z,99.90
2022-12-13T11:42:08.338Z,99.90
2022-12-13T11:44:47.377Z,99.90
2022-12-13T11:47:15.823Z,99.90
2022-12-13T11:49:42.789Z,99.90
2022-12-13T11:52:14.527Z,99.90
2022-12-13T11:54:46.957Z,99.90
2022-12-13T11:57:16.436Z,99.90
2022-12-13T11:59:45.111Z,99.90
2022-12-13T12:02:41.053Z,99.90
2022-12-13T12:05:26.596Z,99.90
2022-12-13T12:08:31.139Z,99.90
2022-12-13T12:10:49.274Z,99.90
2022-12-13T12:13:18.228Z,99.90
2022-12-13T12:15:47.180Z,99.90
2022-12-13T12:18:15.303Z,99.90
2022-12-13T12:20:45.076Z,99.90
2022-12-13T12:23:17.780Z,99.90
2022-12-13T12:25:49.678Z,99.90
2022-12-13T12:28:28.892Z,99.90
2022-12-13T12:30:59.703Z,99.90
2022-12-13T12:33:36.398Z,99.90
2022-12-13T12:36:09.404Z,99.90
2022-12-13T12:39:10.335Z,99.90
2022-12-13T12:41:45.058Z,1.00
2022-12-13T12:44:30.644Z,1.00
2022-12-13T12:47:31.614Z,1.00
2022-12-13T12:50:09.623Z,1.00
2022-12-13T12:52:48.580Z,1.00
2022-12-13T12:55:38.687Z,1.00
2022-12-13T12:58:20.230Z,1.00
2022-12-13T13:00:57.288Z,1.00
2022-12-13T13:03:24.845Z,1.00
2022-12-13T13:05:55.772Z,1.00
2022-12-13T13:08:29.243Z,1.00
2022-12-13T13:11:02.134Z,1.00
2022-12-13T13:13:33.333Z,1.00
2022-12-13T13:16:00.424Z,1.00
2022-12-13T13:18:46.093Z,1.00
2022-12-13T13:21:31.005Z,1.00
2022-12-13T13:24:11.937Z,1.00
2022-12-13T13:26:38.639Z,1.00
2022-12-13T13:29:27.901Z,1.00
2022-12-13T13:32:01.420Z,1.00
2022-12-13T13:34:48.948Z,1.00
2022-12-13T13:37:23.132Z,1.00
2022-12-13T13:39:56.169Z,1.00
2022-12-13T13:42:23.568Z,1.00
2022-12-13T13:44:50.225Z,1.00
2022-12-13T13:47:19.585Z,1.00
2022-12-13T13:49:49.792Z,1.00
2022-12-13T13:52:27.088Z,1.00
2022-12-13T13:55:06.304Z,1.00
2022-12-13T13:58:09.217Z,1.00
2022-12-13T14:00:45.221Z,1.00
2022-12-13T14:03:34.262Z,1.00
2022-12-13T14:06:11.562Z,1.00
2022-12-13T14:08:56.304Z,1.00
2022-12-13T14:11:38.249Z,1.00
2022-12-13T14:14:21.422Z,1.00
2022-12-13T14:16:49.432Z,1.00
2022-12-13T14:19:28.619Z,1.00
2022-12-13T14:22:04.725Z,1.00
2022-12-13T14:24:34.441Z,1.00
2022-12-13T14:27:25.180Z,1.00
2022-12-13T14:29:58.622Z,1.00
2022-12-13T14:32:27.567Z,1.00
2022-12-13T14:34:55.114Z,1.00
2022-12-13T14:37:23.875Z,1.00
2022-12-13T14:39:50.552Z,1.00
2022-12-13T14:42:36.219Z,1.00
2022-12-13T14:45:17.730Z,1.00
2022-12-13T14:47:44.321Z,1.00
2022-12-13T14:50:11.844Z,1.00
2022-12-13T14:52:39.681Z,1.00
2022-12-13T14:55:06.832Z,1.00
2022-12-13T14:57:34.304Z,1.00
2022-12-13T15:00:01.502Z,1.00
2022-12-13T15:02:30.176Z,19.80
2022-12-13T15:04:59.318Z,99.90
2022-12-13T15:07:31.267Z,99.90
2022-12-13T15:10:01.689Z,1.00
2022-12-13T15:12:29.865Z,1.00
2022-12-13T15:14:56.439Z,1.00
2022-12-13T15:17:30.676Z,1.00
2022-12-13T15:19:57.945Z,1.00
2022-12-13T15:22:29.933Z,1.00
2022-12-13T15:24:57.213Z,1.00
2022-12-13T15:27:24.624Z,1.00
2022-12-13T15:29:51.609Z,1.00
2022-12-13T15:32:23.249Z,1.00
2022-12-13T15:34:50.993Z,1.00
2022-12-13T15:37:28.248Z,1.00
2022-12-13T15:39:59.390Z,1.00
2022-12-13T15:42:31.103Z,1.00
2022-12-13T15:44:58.776Z,1.00
2022-12-13T15:47:28.332Z,1.00
2022-12-13T15:49:56.697Z,1.00
2022-12-13T15:52:49.546Z,1.00
2022-12-13T15:55:19.449Z,1.00
2022-12-13T15:57:53.180Z,1.00
2022-12-13T16:00:31.132Z,1.00
2022-12-13T16:03:11.710Z,1.00
2022-12-13T16:05:40.217Z,1.00
2022-12-13T16:08:14.135Z,1.00
2022-12-13T16:10:45.945Z,1.00
2022-12-13T16:13:25.596Z,1.00
2022-12-13T16:16:09.232Z,1.00
2022-12-13T16:18:46.335Z,1.00
2022-12-13T16:21:14.156Z,1.00
2022-12-13T16:23:40.779Z,1.40
2022-12-13T16:26:15.564Z,99.90
2022-12-13T16:28:42.552Z,99.90
2022-12-13T16:31:12.334Z,99.90
2022-12-13T16:33:38.964Z,1.00
2022-12-13T16:36:05.620Z,1.00
2022-12-13T16:38:33.260Z,1.00
2022-12-13T16:41:00.006Z,1.00
2022-12-13T16:43:35.769Z,99.90
2022-12-13T16:47:17.505Z,99.90
2022-12-13T16:48:50.601Z,99.90
2022-12-13T16:51:18.060Z,1.00
2022-12-13T16:53:44.705Z,1.00
2022-12-13T16:56:14.614Z,1.00
2022-12-13T16:58:46.118Z,1.00
2022-12-13T17:01:17.581Z,1.00
2022-12-13T17:03:44.166Z,1.00
2022-12-13T17:06:11.040Z,1.00
2022-12-13T17:08:37.723Z,1.40
2022-12-13T17:11:06.636Z,99.90
2022-12-13T17:13:33.417Z,1.00
2022-12-13T17:16:00.193Z,1.00
2022-12-13T17:18:26.838Z,99.90
2022-12-13T17:20:59.040Z,99.90
2022-12-13T17:23:27.093Z,1.00
2022-12-13T17:25:58.661Z,1.00
2022-12-13T17:28:25.637Z,1.00
2022-12-13T17:30:54.971Z,1.00
2022-12-13T17:33:22.176Z,1.00
2022-12-13T17:35:48.954Z,1.00
2022-12-13T17:38:15.496Z,1.00
2022-12-13T17:40:42.052Z,1.00
2022-12-13T17:43:28.747Z,1.00
2022-12-13T17:46:10.633Z,1.00
2022-12-13T17:48:40.847Z,1.00
2022-12-13T17:51:08.653Z,1.00
2022-12-13T17:53:37.013Z,99.90
2022-12-13T17:56:04.444Z,99.90
2022-12-13T17:58:32.205Z,1.00
2022-12-13T18:00:59.192Z,1.00
2022-12-13T18:03:26.469Z,1.00
2022-12-13T18:05:57.365Z,1.00
2022-12-13T18:08:24.249Z,1.00
2022-12-13T18:11:23.502Z,1.00
2022-12-13T18:13:41.329Z,1.00
2022-12-13T18:16:08.544Z,1.00
2022-12-13T18:18:35.630Z,1.00
2022-12-13T18:21:06.298Z,1.00
2022-12-13T18:23:33.373Z,1.00
2022-12-13T18:26:00.879Z,1.00
2022-12-13T18:28:27.742Z,1.00
2022-12-13T18:30:58.058Z,1.00
2022-12-13T18:33:25.016Z,1.00
2022-12-13T18:35:51.756Z,1.00
2022-12-13T18:38:18.596Z,1.00
2022-12-13T18:40:45.193Z,1.00
2022-12-13T18:43:11.799Z,1.00
2022-12-13T18:45:38.420Z,1.00
2022-12-13T18:48:05.435Z,1.00
2022-12-13T18:50:32.951Z,1.00
2022-12-13T18:52:59.501Z,1.00
2022-12-13T18:55:26.035Z,1.00
2022-12-13T18:57:52.631Z,1.00
2022-12-13T19:00:19.400Z,1.00
2022-12-13T19:02:46.072Z,11.20
2022-12-13T19:05:12.876Z,1.00
2022-12-13T19:07:39.460Z,1.00
2022-12-13T19:10:06.255Z,1.00
2022-12-13T19:12:32.877Z,13.10
2022-12-13T19:14:59.452Z,90.40
2022-12-13T19:17:26.366Z,99.90
2022-12-13T19:19:53.284Z,99.90
2022-12-13T19:22:21.657Z,99.90
2022-12-13T19:24:48.275Z,99.90
2022-12-13T19:27:14.950Z,99.90
2022-12-13T19:29:41.492Z,99.90
2022-12-13T19:32:08.242Z,53.40
2022-12-13T19:34:34.969Z,53.90
2022-12-13T19:37:06.334Z,99.90
2022-12-13T19:39:33.149Z,99.90
2022-12-13T19:41:59.725Z,99.90
2022-12-13T19:44:26.267Z,99.90
2022-12-13T19:46:53.305Z,99.90
2022-12-13T19:49:20.457Z,99.90
2022-12-13T19:51:47.034Z,99.90
2022-12-13T19:54:13.602Z,99.90
2022-12-13T19:56:40.217Z,99.90
2022-12-13T19:59:06.788Z,99.90
2022-12-13T20:01:33.483Z,99.90
2022-12-13T20:04:00.336Z,99.90
2022-12-13T20:06:26.949Z,99.90
2022-12-13T20:08:53.647Z,99.90
2022-12-13T20:11:20.949Z,99.90
2022-12-13T20:13:48.101Z,99.90
2022-12-13T20:16:15.535Z,99.90
2022-12-13T20:18:42.393Z,99.90
2022-12-13T20:21:12.016Z,99.90
2022-12-13T20:23:39.424Z,99.90
2022-12-13T20:26:07.129Z,99.90
2022-12-13T20:28:33.757Z,99.90
2022-12-13T20:31:07.458Z,90.60
2022-12-13T20:33:34.278Z,62.70
2022-12-13T20:36:23.613Z,47.10
2022-12-13T20:38:48.342Z,6.00
2022-12-13T20:41:14.914Z,1.00
2022-12-13T20:43:42.907Z,1.00
2022-12-13T20:46:10.336Z,1.00
2022-12-13T20:48:40.833Z,1.00
2022-12-13T20:51:07.944Z,1.00
2022-12-13T20:53:34.806Z,1.00
2022-12-13T20:56:01.709Z,1.00
2022-12-13T20:58:28.292Z,1.00
2022-12-13T21:00:54.917Z,1.00
2022-12-13T21:03:21.726Z,1.00
2022-12-13T21:05:48.285Z,1.00
2022-12-13T21:08:33.714Z,1.00
2022-12-13T21:11:20.227Z,1.00
2022-12-13T21:13:47.156Z,1.00
2022-12-13T21:16:15.059Z,1.00
2022-12-13T21:18:41.953Z,1.00
2022-12-13T21:21:08.652Z,1.00
2022-12-13T21:23:35.612Z,1.00
2022-12-13T21:26:02.222Z,1.00
2022-12-13T21:28:28.804Z,1.00
2022-12-13T21:30:59.976Z,1.00
2022-12-13T21:33:30.205Z,1.00
2022-12-13T21:35:56.927Z,1.00
2022-12-13T21:38:23.508Z,1.00
2022-12-13T21:40:50.098Z,1.00
2022-12-13T21:43:17.089Z,1.00
2022-12-13T21:45:43.808Z,1.00
2022-12-13T21:48:10.579Z,1.00
2022-12-13T21:50:37.131Z,1.00
2022-12-13T21:53:04.906Z,1.00
2022-12-13T21:55:39.940Z,1.00
2022-12-13T21:58:26.576Z,1.00
2022-12-13T22:00:53.405Z,1.00
2022-12-13T22:03:19.995Z,1.00
2022-12-13T22:05:46.548Z,1.00
2022-12-13T22:08:13.324Z,1.00
2022-12-13T22:10:59.880Z,1.00
2022-12-13T22:13:26.452Z,1.00
2022-12-13T22:15:53.088Z,1.00
2022-12-13T22:18:19.839Z,1.00
2022-12-13T22:20:46.408Z,1.00
2022-12-13T22:23:12.983Z,1.00
2022-12-13T22:25:39.528Z,1.00
2022-12-13T22:28:06.134Z,1.00
2022-12-13T22:30:33.848Z,1.00
2022-12-13T22:33:00.422Z,1.00
2022-12-13T22:35:27.653Z,1.00
2022-12-13T22:37:58.788Z,1.00
2022-12-13T22:40:27.881Z,1.00
2022-12-13T22:42:54.432Z,1.00
2022-12-13T22:45:21.044Z,1.00
2022-12-13T22:47:47.795Z,1.00
2022-12-13T22:50:14.633Z,1.00
2022-12-13T22:52:41.233Z,1.00
2022-12-13T22:55:08.048Z,1.00
2022-12-13T22:57:34.685Z,1.00
2022-12-13T23:00:01.421Z,1.00
2022-12-13T23:02:28.227Z,1.00
2022-12-13T23:04:54.817Z,1.00
2022-12-13T23:07:21.756Z,1.00
2022-12-13T23:09:48.289Z,1.00
2022-12-13T23:12:33.967Z,1.00
2022-12-13T23:15:00.518Z,1.00
2022-12-13T23:17:27.140Z,1.00
2022-12-13T23:19:54.069Z,1.00
2022-12-13T23:22:21.440Z,1.00
2022-12-13T23:24:48.418Z,1.00
2022-12-13T23:27:15.002Z,1.00
2022-12-13T23:29:41.600Z,1.00
2022-12-13T23:32:08.200Z,1.00
2022-12-13T23:34:34.735Z,1.00
2022-12-13T23:37:02.924Z,1.00
2022-12-13T23:39:29.540Z,1.00
2022-12-13T23:41:56.101Z,1.00
2022-12-13T23:44:22.727Z,1.00
2022-12-13T23:46:49.296Z,1.00
2022-12-13T23:49:16.069Z,1.00
2022-12-13T23:51:42.651Z,1.00
2022-12-13T23:54:14.437Z,1.00
2022-12-13T23:56:40.998Z,1.00
2022-12-13T23:59:07.569Z,1.00
